Time;durP1;ratioP1;P1;durP2;ratioP2;P2;SDS_P1;SDS_P2;PMS_P1;PMS_P2;Temp;Humidity;BMP_temperature;BMP_pressure;BME280_temperature;BME280_humidity;BME280_pressure;Samples;Min_cycle;Max_cycle;Signal;HPM_P1;HPM_P2
2021/05/22 00:00:38;;;;;;;14.95;11.30;;;359.00;2329.60;;;;;;5097572;28;20024;-81
2021/05/22 00:03:04;;;;;;;12.88;10.10;;;358.90;2329.60;;;;;;5097625;28;20078;-80
2021/05/22 00:05:30;;;;;;;14.57;10.55;;;358.90;2329.60;;;;;;5088996;28;20063;-79
2021/05/22 00:07:56;;;;;;;17.23;11.23;;;358.90;2329.60;;;;;;5085855;28;20019;-79
2021/05/22 00:10:21;;;;;;;14.25;10.75;;;358.90;2329.60;;;;;;5096750;28;20429;-79
2021/05/22 00:12:47;;;;;;;16.45;11.25;;;358.80;2329.60;;;;;;5096821;28;20045;-78
2021/05/22 00:15:18;;;;;;;15.35;10.70;;;358.80;2329.60;;;;;;5114593;28;20124;-78
2021/05/22 00:17:44;;;;;;;18.13;10.70;;;358.80;2329.60;;;;;;5096060;28;20397;-79
2021/05/22 00:20:11;;;;;;;15.80;11.07;;;358.70;2329.60;;;;;;5097390;28;20051;-79
2021/05/22 00:22:37;;;;;;;15.90;9.70;;;358.80;2329.60;;;;;;5097045;28;20023;-81
2021/05/22 00:25:04;;;;;;;16.55;11.13;;;358.80;2329.60;;;;;;5096752;28;20042;-78
2021/05/22 00:27:30;;;;;;;15.00;10.93;;;358.70;2329.60;;;;;;5092635;28;20024;-79
2021/05/22 00:29:56;;;;;;;16.25;10.38;;;358.70;2329.60;;;;;;5084650;28;20472;-81
2021/05/22 00:32:22;;;;;;;17.10;11.60;;;358.80;2329.60;;;;;;5090369;28;20050;-79
2021/05/22 00:34:47;;;;;;;14.60;10.45;;;358.70;2329.60;;;;;;5089594;28;20063;-79
2021/05/22 00:37:13;;;;;;;16.25;10.43;;;358.80;2329.60;;;;;;5088244;28;20058;-79
2021/05/22 00:39:39;;;;;;;14.48;10.63;;;358.70;2329.60;;;;;;5093261;28;20396;-79
2021/05/22 00:42:05;;;;;;;13.00;10.43;;;358.70;2329.60;;;;;;5090568;28;20473;-79
2021/05/22 00:44:32;;;;;;;15.60;10.55;;;358.60;2329.60;;;;;;5085704;28;20131;-79
2021/05/22 00:47:02;;;;;;;13.27;9.30;;;358.60;2329.60;;;;;;5093626;28;20023;-79
2021/05/22 00:49:28;;;;;;;15.68;11.25;;;358.60;2329.60;;;;;;5113457;28;20016;-81
2021/05/22 00:51:55;;;;;;;13.05;10.52;;;358.60;2329.60;;;;;;5086780;28;20046;-79
2021/05/22 00:54:20;;;;;;;14.90;10.43;;;358.50;2329.60;;;;;;5109948;28;20020;-80
2021/05/22 00:56:48;;;;;;;17.30;10.50;;;358.60;2329.60;;;;;;5089452;28;20044;-79
2021/05/22 00:59:18;;;;;;;13.75;10.38;;;358.50;2329.60;;;;;;5080754;28;20381;-79
2021/05/22 01:01:44;;;;;;;14.65;11.13;;;358.50;2329.60;;;;;;5086291;28;20027;-79
2021/05/22 01:04:11;;;;;;;15.38;10.35;;;358.40;2329.60;;;;;;5090559;28;20058;-80
2021/05/22 01:06:37;;;;;;;14.10;10.52;;;358.50;2329.60;;;;;;5095524;28;20015;-80
2021/05/22 01:09:11;;;;;;;12.98;10.80;;;358.50;2329.60;;;;;;5097128;28;20024;-80
2021/05/22 01:11:45;;;;;;;17.05;11.23;;;358.50;2329.60;;;;;;5083271;28;20023;-80
2021/05/22 01:14:23;;;;;;;13.40;9.73;;;358.40;2329.60;;;;;;5087483;28;20031;-80
2021/05/22 01:16:52;;;;;;;11.65;9.70;;;333.70;2329.60;;;;;;5081690;28;20024;-79
2021/05/22 01:19:59;;;;;;;14.63;9.80;;;333.70;2329.60;;;;;;5101943;28;20035;-80
2021/05/22 01:22:27;;;;;;;11.80;8.85;;;358.40;2329.60;;;;;;5021479;28;20503;-79
2021/05/22 01:25:00;;;;;;;16.85;11.30;;;358.50;2329.60;;;;;;5032163;28;20033;-79
2021/05/22 01:27:26;;;;;;;13.27;10.65;;;358.40;2329.60;;;;;;5034222;28;20060;-80
2021/05/22 01:29:53;;;;;;;15.75;11.02;;;358.40;2329.60;;;;;;5027357;28;20017;-80
2021/05/22 01:32:19;;;;;;;13.48;10.48;;;333.70;2329.60;;;;;;5048743;28;20175;-80
2021/05/22 01:34:45;;;;;;;13.88;11.25;;;333.50;2329.60;;;;;;5034169;28;20620;-80
2021/05/22 01:37:10;;;;;;;15.85;10.30;;;333.40;2329.60;;;;;;5032404;28;20021;-80
2021/05/22 01:39:36;;;;;;;14.07;10.63;;;333.40;2329.60;;;;;;5032693;28;20026;-80
2021/05/22 01:42:02;;;;;;;12.70;10.38;;;333.30;2329.60;;;;;;5050093;28;20044;-79
2021/05/22 01:44:32;;;;;;;13.48;11.10;;;333.40;2329.60;;;;;;5033438;28;20116;-79
2021/05/22 01:46:58;;;;;;;14.40;10.38;;;333.40;2329.60;;;;;;5033867;28;20040;-79
2021/05/22 01:49:26;;;;;;;11.93;10.30;;;333.60;2329.60;;;;;;5032915;28;20474;-80
2021/05/22 01:51:54;;;;;;;20.02;11.23;;;333.70;2329.60;;;;;;5033943;28;20029;-80
2021/05/22 01:54:21;;;;;;;14.32;10.27;;;333.70;2329.60;;;;;;5050174;28;20412;-80
2021/05/22 01:56:48;;;;;;;15.63;11.70;;;333.60;2329.60;;;;;;5033089;28;20029;-79
2021/05/22 01:59:15;;;;;;;16.52;10.65;;;333.70;2329.60;;;;;;5061852;28;20024;-80
2021/05/22 02:01:41;;;;;;;13.75;11.00;;;358.40;2329.60;;;;;;5089931;28;20030;-80
2021/05/22 02:04:07;;;;;;;14.82;10.70;;;333.70;2329.60;;;;;;5086249;28;20019;-80
2021/05/22 02:06:41;;;;;;;18.35;10.63;;;333.70;2329.60;;;;;;5089168;28;20477;-80
2021/05/22 02:09:07;;;;;;;13.52;11.20;;;333.60;2329.60;;;;;;5080471;28;20061;-81
2021/05/22 02:11:37;;;;;;;13.63;10.73;;;333.60;2329.60;;;;;;5082802;28;20077;-80
2021/05/22 02:14:06;;;;;;;16.17;11.13;;;333.50;2329.60;;;;;;5103744;28;20539;-80
2021/05/22 02:16:35;;;;;;;17.23;11.10;;;333.50;2329.60;;;;;;5087034;28;20032;-80
2021/05/22 02:19:02;;;;;;;15.98;11.80;;;333.50;2329.60;;;;;;5086889;28;20514;-80
2021/05/22 02:21:30;;;;;;;13.38;11.05;;;333.60;2329.60;;;;;;5107280;28;20020;-80
2021/05/22 02:23:57;;;;;;;16.38;11.63;;;333.60;2329.60;;;;;;5088835;28;20079;-80
2021/05/22 02:26:25;;;;;;;16.35;11.15;;;333.60;2329.60;;;;;;5085997;28;20120;-79
2021/05/22 02:28:52;;;;;;;18.00;11.13;;;333.60;2329.60;;;;;;5083633;28;20015;-80
2021/05/22 02:31:22;;;;;;;18.83;11.13;;;333.60;2329.60;;;;;;5099176;28;20012;-80
2021/05/22 02:33:49;;;;;;;15.90;12.13;;;333.60;2329.60;;;;;;5091473;28;20027;-80
2021/05/22 02:36:15;;;;;;;16.00;10.63;;;333.50;2329.60;;;;;;5085852;28;20036;-81
2021/05/22 02:38:47;;;;;;;16.27;13.05;;;333.50;2329.60;;;;;;5096296;28;20496;-80
2021/05/22 02:41:14;;;;;;;15.13;11.98;;;333.50;2329.60;;;;;;5080494;28;20035;-80
2021/05/22 02:43:45;;;;;;;14.38;11.27;;;333.40;2329.60;;;;;;5083783;28;20480;-80
2021/05/22 02:46:13;;;;;;;16.05;11.45;;;333.50;2329.60;;;;;;5085416;28;20054;-80
2021/05/22 02:48:39;;;;;;;16.40;12.45;;;333.50;2329.60;;;;;;5081358;28;20058;-79
2021/05/22 02:51:06;;;;;;;15.77;12.02;;;333.50;2329.60;;;;;;5086245;28;20023;-80
2021/05/22 02:53:34;;;;;;;16.42;11.40;;;333.50;2329.60;;;;;;5082182;28;20022;-80
2021/05/22 02:56:03;;;;;;;19.02;11.55;;;333.60;2329.60;;;;;;5076040;28;20093;-80
2021/05/22 02:58:31;;;;;;;14.25;10.95;;;333.70;2329.60;;;;;;5098574;28;20020;-80
2021/05/22 03:00:57;;;;;;;14.65;11.57;;;333.70;2329.60;;;;;;5087598;28;20041;-80
2021/05/22 03:03:23;;;;;;;13.45;11.27;;;333.70;2329.60;;;;;;5088065;28;20028;-80
2021/05/22 03:05:49;;;;;;;11.95;10.60;;;333.70;2329.60;;;;;;5087126;28;20020;-80
2021/05/22 03:08:15;;;;;;;17.85;11.50;;;333.70;2329.60;;;;;;5106071;28;20019;-80
2021/05/22 03:10:41;;;;;;;20.75;12.02;;;333.70;2329.60;;;;;;5086710;28;20020;-80
2021/05/22 03:13:07;;;;;;;14.90;11.40;;;333.60;2329.60;;;;;;5089012;28;20026;-79
2021/05/22 03:15:33;;;;;;;15.70;11.77;;;333.70;2329.60;;;;;;5112217;28;20028;-80
2021/05/22 03:17:59;;;;;;;21.33;11.50;;;333.70;2329.60;;;;;;5092874;28;20508;-80
2021/05/22 03:20:25;;;;;;;18.00;12.07;;;333.70;2329.60;;;;;;5094834;28;20032;-80
2021/05/22 03:22:50;;;;;;;15.85;12.02;;;333.60;2329.60;;;;;;5090089;28;20020;-80
2021/05/22 03:25:16;;;;;;;13.27;11.35;;;333.60;2329.60;;;;;;5093006;28;20097;-79
2021/05/22 03:27:42;;;;;;;15.43;12.55;;;333.70;2329.60;;;;;;5093013;28;20068;-80
2021/05/22 03:30:10;;;;;;;18.02;12.18;;;333.70;2329.60;;;;;;5088245;28;20110;-80
2021/05/22 03:32:36;;;;;;;16.77;12.75;;;333.40;2329.60;;;;;;5105924;28;20011;-81
2021/05/22 03:35:02;;;;;;;16.00;12.27;;;333.40;2329.60;;;;;;5089267;28;20062;-80
2021/05/22 03:37:28;;;;;;;18.67;12.15;;;333.30;2329.60;;;;;;5088984;28;20035;-81
2021/05/22 03:39:53;;;;;;;18.88;13.68;;;333.40;2329.60;;;;;;5081578;28;20032;-80
2021/05/22 03:42:19;;;;;;;15.63;12.50;;;333.20;2329.60;;;;;;5086050;28;20047;-80
2021/05/22 03:44:45;;;;;;;18.85;13.30;;;333.30;2329.60;;;;;;5101913;28;20056;-80
2021/05/22 03:47:11;;;;;;;16.60;13.02;;;333.30;2329.60;;;;;;5088599;28;20017;-80
2021/05/22 03:49:38;;;;;;;18.52;11.98;;;333.30;2329.60;;;;;;5089359;28;20051;-80
2021/05/22 03:52:04;;;;;;;21.17;12.57;;;333.50;2329.60;;;;;;5089404;28;20100;-80
2021/05/22 03:54:30;;;;;;;17.85;12.07;;;333.50;2329.60;;;;;;5083106;28;20024;-80
2021/05/22 03:56:56;;;;;;;15.70;11.32;;;333.50;2329.60;;;;;;5105085;28;20027;-80
2021/05/22 03:59:21;;;;;;;14.65;10.82;;;333.50;2329.60;;;;;;5081106;28;20457;-80
2021/05/22 04:01:47;;;;;;;17.88;12.30;;;333.50;2329.60;;;;;;5090507;28;20103;-79
2021/05/22 04:04:13;;;;;;;16.27;12.13;;;333.60;2329.60;;;;;;5085240;28;20028;-80
2021/05/22 04:06:39;;;;;;;16.58;10.45;;;333.60;2329.60;;;;;;5087462;28;20036;-80
2021/05/22 04:09:05;;;;;;;12.85;11.00;;;333.50;2329.60;;;;;;5086291;28;20024;-80
2021/05/22 04:11:31;;;;;;;14.63;11.32;;;333.60;2329.60;;;;;;5083526;28;20783;-80
2021/05/22 04:13:56;;;;;;;16.00;10.02;;;333.60;2329.60;;;;;;5089118;28;20016;-80
2021/05/22 04:16:22;;;;;;;16.08;10.88;;;333.60;2329.60;;;;;;5088831;28;20377;-80
2021/05/22 04:18:48;;;;;;;13.77;10.10;;;333.50;2329.60;;;;;;5085088;28;20020;-79
2021/05/22 04:21:14;;;;;;;13.75;10.38;;;333.50;2329.60;;;;;;5092521;28;20019;-78
2021/05/22 04:23:40;;;;;;;17.10;10.43;;;333.50;2329.60;;;;;;5096687;28;20039;-81
2021/05/22 04:26:06;;;;;;;15.40;10.98;;;333.50;2329.60;;;;;;5091560;28;20016;-80
2021/05/22 04:28:32;;;;;;;14.52;9.88;;;333.60;2329.60;;;;;;5106159;28;20035;-79
2021/05/22 04:30:58;;;;;;;14.45;9.90;;;333.70;2329.60;;;;;;5087315;28;20042;-80
2021/05/22 04:33:24;;;;;;;12.32;9.07;;;358.40;2329.60;;;;;;5083928;28;20020;-79
2021/05/22 04:35:49;;;;;;;18.27;10.02;;;358.40;2329.60;;;;;;5092691;28;20134;-78
2021/05/22 04:38:15;;;;;;;13.20;9.85;;;358.40;2329.60;;;;;;5092439;28;20057;-78
2021/05/22 04:40:41;;;;;;;14.60;10.07;;;358.40;2329.60;;;;;;5107156;28;20032;-79
2021/05/22 04:43:07;;;;;;;11.60;9.18;;;358.40;2329.60;;;;;;5087774;28;20028;-80
2021/05/22 04:45:34;;;;;;;11.55;9.98;;;358.40;2329.60;;;;;;5085114;28;20048;-79
2021/05/22 04:48:00;;;;;;;15.98;10.07;;;358.40;2329.60;;;;;;5086682;28;20011;-80
2021/05/22 04:50:28;;;;;;;11.95;9.10;;;358.50;2329.60;;;;;;5089778;28;20415;-79
2021/05/22 04:52:53;;;;;;;10.98;9.15;;;358.50;2329.60;;;;;;5090288;28;20016;-79
2021/05/22 04:55:19;;;;;;;13.75;9.15;;;358.60;2329.60;;;;;;5085608;28;20055;-78
2021/05/22 04:57:45;;;;;;;17.25;9.50;;;358.60;2329.60;;;;;;5084808;28;20024;-78
2021/05/22 05:00:11;;;;;;;13.57;9.05;;;358.70;2329.60;;;;;;5084965;28;20024;-80
2021/05/22 05:02:37;;;;;;;12.85;10.05;;;358.80;2329.60;;;;;;5084086;28;20174;-78
2021/05/22 05:05:03;;;;;;;13.13;9.00;;;358.80;2329.60;;;;;;5085630;28;20486;-80
2021/05/22 05:07:29;;;;;;;11.75;9.70;;;358.80;2329.60;;;;;;5089358;28;20016;-80
2021/05/22 05:09:55;;;;;;;13.27;8.65;;;358.90;2329.60;;;;;;5092910;28;20484;-79
2021/05/22 05:12:21;;;;;;;14.20;8.93;;;359.00;2329.60;;;;;;5082992;28;20609;-79
2021/05/22 05:14:47;;;;;;;15.70;9.15;;;359.10;2329.60;;;;;;5086812;28;20054;-78
2021/05/22 05:17:13;;;;;;;14.60;8.88;;;359.20;2329.60;;;;;;5104588;28;20019;-80
2021/05/22 05:19:39;;;;;;;12.00;8.27;;;359.30;2329.60;;;;;;5083866;28;20051;-79
2021/05/22 05:22:05;;;;;;;12.15;8.80;;;384.00;2329.60;;;;;;5103737;28;20024;-79
2021/05/22 05:24:30;;;;;;;10.88;7.97;;;384.10;2329.60;;;;;;5102555;28;20032;-79
2021/05/22 05:26:56;;;;;;;13.70;8.38;;;384.30;2329.60;;;;;;5084102;28;20435;-79
2021/05/22 05:29:22;;;;;;;12.02;8.10;;;384.30;2329.60;;;;;;5086145;28;20062;-79
2021/05/22 05:31:47;;;;;;;13.48;8.02;;;384.40;2329.60;;;;;;5087537;28;20039;-79
2021/05/22 05:34:13;;;;;;;15.32;7.53;;;384.50;2329.60;;;;;;5101499;28;20557;-79
2021/05/22 05:36:39;;;;;;;12.73;8.30;;;384.60;2329.60;;;;;;5104289;28;20061;-80
2021/05/22 05:39:06;;;;;;;11.65;8.20;;;384.70;2329.60;;;;;;5085736;28;20024;-81
2021/05/22 05:41:32;;;;;;;14.13;9.25;;;384.80;2329.60;;;;;;5084500;28;20051;-80
2021/05/22 05:43:58;;;;;;;15.63;7.75;;;409.60;2355.20;;;;;;5086624;28;20439;-79
2021/05/22 05:46:23;;;;;;;11.10;7.30;;;409.80;2304.00;;;;;;5103385;28;20028;-80
2021/05/22 05:48:49;;;;;;;11.45;8.80;;;409.90;2304.00;;;;;;5104453;28;20035;-81
2021/05/22 05:51:15;;;;;;;11.00;6.45;;;410.00;2304.00;;;;;;5090305;28;20016;-80
2021/05/22 05:53:41;;;;;;;16.42;7.90;;;410.30;2252.80;;;;;;5091449;28;20437;-81
2021/05/22 05:56:07;;;;;;;11.35;6.18;;;410.40;2252.80;;;;;;5093347;28;20682;-81
2021/05/22 05:58:33;;;;;;;26.48;8.25;;;435.20;2150.40;;;;;;5095689;28;20020;-80
2021/05/22 06:00:59;;;;;;;10.45;6.72;;;435.30;2201.60;;;;;;5079968;28;20049;-82
2021/05/22 06:03:26;;;;;;;12.07;7.07;;;435.50;2201.60;;;;;;5085739;28;20023;-82
2021/05/22 06:05:52;;;;;;;8.57;5.93;;;435.60;2201.60;;;;;;5085211;28;20026;-81
2021/05/22 06:08:19;;;;;;;6.93;5.13;;;435.80;2150.40;;;;;;5102043;28;20023;-80
2021/05/22 06:10:46;;;;;;;9.93;6.45;;;435.80;2073.60;;;;;;5087281;28;20034;-81
2021/05/22 06:13:20;;;;;;;14.68;7.20;;;435.90;2099.20;;;;;;5095766;28;20028;-82
2021/05/22 06:15:49;;;;;;;11.68;5.40;;;435.90;2124.80;;;;;;5094959;28;20047;-81
2021/05/22 06:18:15;;;;;;;13.52;5.80;;;436.10;2073.60;;;;;;5086297;28;20387;-80
2021/05/22 06:20:40;;;;;;;11.80;5.07;;;436.10;2073.60;;;;;;5094976;28;20019;-81
2021/05/22 06:23:06;;;;;;;8.38;5.40;;;436.10;2048.00;;;;;;5104427;28;20026;-80
2021/05/22 06:25:32;;;;;;;7.82;5.05;;;460.80;2073.60;;;;;;5095420;28;20427;-81
2021/05/22 06:27:57;;;;;;;13.40;5.22;;;460.80;2048.00;;;;;;5085994;28;20036;-79
2021/05/22 06:30:23;;;;;;;12.05;4.97;;;460.90;2022.40;;;;;;5078399;28;20052;-81
2021/05/22 06:32:49;;;;;;;7.88;5.05;;;461.10;1996.80;;;;;;5091500;28;20476;-82
2021/05/22 06:35:15;;;;;;;14.70;5.55;;;461.20;1945.60;;;;;;5095536;28;20066;-84
2021/05/22 06:37:40;;;;;;;9.23;4.68;;;461.30;1945.60;;;;;;5086333;28;20020;-83
2021/05/22 06:40:08;;;;;;;8.65;4.10;;;461.50;1894.40;;;;;;5090280;28;20110;-82
2021/05/22 06:42:34;;;;;;;7.18;4.20;;;461.70;1920.00;;;;;;5111572;28;20016;-83
2021/05/22 06:45:07;;;;;;;13.70;5.20;;;461.70;1945.60;;;;;;5113233;28;20160;-88
2021/05/22 06:47:33;;;;;;;10.77;4.20;;;486.40;1945.60;;;;;;5114213;28;20064;-90
2021/05/22 06:49:59;;;;;;;6.03;4.80;;;486.50;1920.00;;;;;;5086687;28;20107;-83
2021/05/22 06:52:24;;;;;;;9.23;4.60;;;486.60;1920.00;;;;;;5089439;28;20473;-82
2021/05/22 06:54:50;;;;;;;11.50;4.13;;;486.70;1894.40;;;;;;5081597;28;20026;-90
2021/05/22 06:57:16;;;;;;;26.63;6.20;;;486.70;1843.20;;;;;;5095582;28;20028;-81
2021/05/22 06:59:42;;;;;;;10.38;6.43;;;486.80;1920.00;;;;;;5113320;28;20038;-82
2021/05/22 07:02:08;;;;;;;9.80;5.90;;;486.80;1971.20;;;;;;5084419;28;20436;-83
2021/05/22 07:04:34;;;;;;;9.65;5.45;;;486.80;1996.80;;;;;;5088286;28;20114;-91
2021/05/22 07:07:00;;;;;;;7.47;5.32;;;487.00;1971.20;;;;;;5083914;28;20024;-82
2021/05/22 07:09:25;;;;;;;9.02;5.50;;;487.00;1971.20;;;;;;5107530;28;20019;-84
2021/05/22 07:11:52;;;;;;;8.63;5.90;;;487.00;1945.60;;;;;;5096186;28;20024;-84
2021/05/22 07:14:18;;;;;;;12.30;5.72;;;487.10;1920.00;;;;;;5095216;28;20032;-83
2021/05/22 07:16:43;;;;;;;8.82;5.80;;;487.10;1945.60;;;;;;5090161;28;20509;-84
2021/05/22 07:19:09;;;;;;;12.00;5.50;;;487.20;1971.20;;;;;;5075053;28;20103;-82
2021/05/22 07:21:35;;;;;;;11.00;4.78;;;487.30;1868.80;;;;;;5092065;28;20032;-84
2021/05/22 07:24:01;;;;;;;7.05;4.15;;;512.00;1868.80;;;;;;5113462;28;20055;-84
2021/05/22 07:26:26;;;;;;;6.95;4.80;;;512.10;1817.60;;;;;;5094823;28;20015;-83
2021/05/22 07:28:54;;;;;;;7.97;4.30;;;512.20;1817.60;;;;;;5088310;28;20077;-85
2021/05/22 07:31:20;;;;;;;10.63;4.65;;;512.30;1843.20;;;;;;5074972;28;20502;-87
2021/05/22 07:33:46;;;;;;;7.53;4.68;;;512.30;1792.00;;;;;;5094074;28;20015;-83
2021/05/22 07:36:12;;;;;;;9.07;4.65;;;512.00;1817.60;;;;;;5095216;28;20032;-84
2021/05/22 07:38:40;;;;;;;7.47;3.97;;;512.00;1792.00;;;;;;5091828;28;20047;-84
2021/05/22 07:41:06;;;;;;;12.27;4.90;;;512.00;1817.60;;;;;;5074844;28;20490;-84
2021/05/22 07:43:32;;;;;;;12.07;4.93;;;512.30;1843.20;;;;;;5088932;28;20048;-81
2021/05/22 07:45:57;;;;;;;8.82;4.68;;;512.30;1843.20;;;;;;5095109;28;20032;-83
2021/05/22 07:48:26;;;;;;;11.80;5.25;;;512.50;1843.20;;;;;;5085508;28;20024;-85
2021/05/22 07:50:53;;;;;;;9.20;4.65;;;512.50;1843.20;;;;;;5088112;28;20093;-85
2021/05/22 07:53:20;;;;;;;12.20;3.97;;;512.50;1817.60;;;;;;5079301;28;20032;-83
2021/05/22 07:55:47;;;;;;;9.50;3.80;;;512.50;1792.00;;;;;;5086652;28;20034;-83
2021/05/22 07:58:16;;;;;;;7.53;3.50;;;512.70;1740.80;;;;;;5081325;28;20024;-83
2021/05/22 08:00:46;;;;;;;7.70;3.83;;;512.90;1715.20;;;;;;5098218;28;20034;-86
2021/05/22 08:03:11;;;;;;;10.80;4.53;;;537.70;1766.40;;;;;;5098616;28;20047;-86
2021/05/22 08:05:38;;;;;;;7.05;3.42;;;537.80;1817.60;;;;;;5098194;28;20086;-88
2021/05/22 08:08:04;;;;;;;5.45;3.00;;;538.00;1689.60;;;;;;5098438;28;20023;-86
2021/05/22 08:10:30;;;;;;;10.20;3.22;;;537.90;1587.20;;;;;;5098624;28;20073;-86
2021/05/22 08:12:56;;;;;;;11.85;3.65;;;538.00;1638.40;;;;;;5098368;28;20020;-87
2021/05/22 08:15:22;;;;;;;5.35;3.15;;;538.00;1689.60;;;;;;5090370;28;20024;-85
2021/05/22 08:17:47;;;;;;;7.32;2.97;;;538.20;1587.20;;;;;;5087057;28;20069;-87
2021/05/22 08:20:13;;;;;;;7.10;3.08;;;538.40;1612.80;;;;;;5094371;28;20599;-85
2021/05/22 08:22:39;;;;;;;6.78;2.85;;;538.30;1638.40;;;;;;5097681;28;20042;-86
2021/05/22 08:25:08;;;;;;;7.00;3.45;;;538.30;1612.80;;;;;;5097968;28;20016;-85
2021/05/22 08:27:34;;;;;;;7.13;3.15;;;538.40;1587.20;;;;;;5108804;28;20023;-85
2021/05/22 08:30:00;;;;;;;6.45;2.97;;;563.20;1612.80;;;;;;5098011;28;20024;-86
2021/05/22 08:32:27;;;;;;;6.45;2.63;;;563.50;1638.40;;;;;;5097365;28;20061;-87
2021/05/22 08:34:53;;;;;;;4.15;2.42;;;563.60;1561.60;;;;;;5086100;28;20056;-85
2021/05/22 08:37:20;;;;;;;7.57;2.72;;;563.60;1510.40;;;;;;5113572;28;20023;-86
2021/05/22 08:39:48;;;;;;;9.35;2.50;;;563.70;1408.00;;;;;;5094306;28;20031;-84
2021/05/22 08:42:19;;;;;;;5.22;2.95;;;563.90;1484.80;;;;;;5097147;28;20080;-84
2021/05/22 08:44:45;;;;;;;8.05;5.45;;;564.00;1433.60;;;;;;5097072;28;20389;-81
2021/05/22 08:47:11;;;;;;;5.47;2.60;;;564.00;1536.00;;;;;;5097258;28;20042;-81
2021/05/22 08:49:41;;;;;;;17.95;9.95;;;563.90;1459.20;;;;;;5083056;28;20023;-84
2021/05/22 08:52:12;;;;;;;8.80;4.45;;;563.80;1382.40;;;;;;5097749;28;20465;-85
2021/05/22 08:54:38;;;;;;;7.57;2.47;;;563.80;1408.00;;;;;;5085962;28;20081;-89
2021/05/22 08:57:05;;;;;;;6.90;2.53;;;564.00;1408.00;;;;;;5088280;28;20076;-86
2021/05/22 08:59:32;;;;;;;7.25;2.35;;;564.10;1356.80;;;;;;5113338;28;20020;-87
2021/05/22 09:01:58;;;;;;;6.57;3.88;;;564.10;1331.20;;;;;;5080077;28;20032;-86
2021/05/22 09:04:24;;;;;;;9.95;4.60;;;588.80;1382.40;;;;;;5103796;27;20508;-86
2021/05/22 09:07:01;;;;;;;6.50;3.47;;;589.00;1408.00;;;;;;5095285;28;20064;-83
2021/05/22 09:09:42;;;;;;;6.10;2.33;;;589.10;1356.80;;;;;;5095806;28;20241;-84
2021/05/22 09:12:09;;;;;;;12.48;4.75;;;589.30;1408.00;;;;;;5096869;28;20519;-85
2021/05/22 09:14:55;;;;;;;5.10;2.63;;;589.60;1382.40;;;;;;5091385;28;20064;-84
2021/05/22 09:17:21;;;;;;;4.20;2.20;;;589.20;1331.20;;;;;;5090322;28;20047;-79
2021/05/22 09:19:46;;;;;;;8.98;3.10;;;589.30;1254.40;;;;;;5084004;28;20394;-79
2021/05/22 09:22:24;;;;;;;23.38;7.63;;;589.50;1280.00;;;;;;5092097;28;20607;-87
2021/05/22 09:24:56;;;;;;;18.98;9.85;;;589.70;1280.00;;;;;;5080218;28;20396;-81
2021/05/22 09:27:21;;;;;;;13.85;4.40;;;614.50;1177.60;;;;;;5087449;28;20489;-82
2021/05/22 09:29:49;;;;;;;4.70;2.30;;;614.60;1126.40;;;;;;5086506;28;20038;-82
2021/05/22 09:32:15;;;;;;;7.32;2.55;;;614.70;1228.80;;;;;;5095178;28;20024;-82
2021/05/22 09:34:41;;;;;;;9.90;3.78;;;614.90;1126.40;;;;;;5095760;28;20027;-80
2021/05/22 09:37:16;;;;;;;3.17;2.20;;;615.00;1126.40;;;;;;5095578;28;20057;-80
2021/05/22 09:39:51;;;;;;;5.72;2.10;;;615.00;1228.80;;;;;;5096054;28;20024;-80
2021/05/22 09:42:25;;;;;;;6.45;2.28;;;615.30;1126.40;;;;;;5095132;28;20085;-81
2021/05/22 09:44:51;;;;;;;5.57;1.85;;;615.20;1152.00;;;;;;5095622;28;20051;-88
2021/05/22 09:47:17;;;;;;;4.80;1.95;;;615.00;1152.00;;;;;;5097077;28;20072;-86
2021/05/22 09:49:42;;;;;;;7.20;2.50;;;614.90;1049.60;;;;;;5096624;28;20564;-85
2021/05/22 09:52:15;;;;;;;5.07;2.35;;;614.80;1024.00;;;;;;5094236;28;20055;-88
2021/05/22 09:54:46;;;;;;;3.80;2.28;;;614.60;1177.60;;;;;;5082502;28;20141;-90
2021/05/22 09:57:15;;;;;;;7.47;2.47;;;614.60;1152.00;;;;;;5084624;28;20031;-81
2021/05/22 09:59:42;;;;;;;8.32;2.80;;;614.70;1203.20;;;;;;5089054;28;20027;-84
2021/05/22 10:02:08;;;;;;;4.82;1.77;;;614.90;1100.80;;;;;;5096145;28;20118;-89
2021/05/22 10:04:34;;;;;;;5.88;2.60;;;615.00;1075.20;;;;;;5095836;28;20028;-85
2021/05/22 10:07:00;;;;;;;4.68;2.83;;;615.00;1126.40;;;;;;5095558;28;20088;-82
2021/05/22 10:09:28;;;;;;;13.25;2.80;;;615.20;1126.40;;;;;;5095860;28;20549;-83
2021/05/22 10:12:14;;;;;;;4.35;2.13;;;615.20;1177.60;;;;;;5095726;28;20031;-84
2021/05/22 10:14:43;;;;;;;14.38;2.60;;;615.10;1024.00;;;;;;5095570;28;20031;-83
2021/05/22 10:17:10;;;;;;;7.25;2.30;;;615.00;1075.20;;;;;;5094426;28;20039;-82
2021/05/22 10:19:37;;;;;;;6.38;1.80;;;615.00;1049.60;;;;;;5095740;28;20495;-83
2021/05/22 10:22:05;;;;;;;4.50;1.90;;;614.90;1075.20;;;;;;5095811;28;20079;-84
2021/05/22 10:24:31;;;;;;;4.43;1.67;;;615.00;1100.80;;;;;;5080698;28;20028;-84
2021/05/22 10:26:58;;;;;;;3.10;1.77;;;615.20;1024.00;;;;;;5089265;28;20028;-81
2021/05/22 10:29:24;;;;;;;3.55;1.90;;;615.10;1024.00;;;;;;5093941;28;20054;-82
2021/05/22 10:31:52;;;;;;;7.40;2.30;;;615.30;972.80;;;;;;5095520;28;20468;-87
2021/05/22 10:34:22;;;;;;;6.80;2.00;;;615.30;896.00;;;;;;5095430;28;20031;-82
2021/05/22 10:36:54;;;;;;;4.22;1.65;;;640.00;896.00;;;;;;5095203;28;20065;-83
2021/05/22 10:39:43;;;;;;;1.98;1.60;;;615.30;896.00;;;;;;5094735;28;20111;-80
2021/05/22 10:42:18;;;;;;;3.45;1.88;;;615.30;921.60;;;;;;5095127;28;20381;-80
2021/05/22 10:44:44;;;;;;;6.45;1.52;;;615.10;870.40;;;;;;5095093;28;20050;-79
2021/05/22 10:47:17;;;;;;;8.30;2.00;;;615.00;870.40;;;;;;5078120;28;20122;-79
2021/05/22 10:49:56;;;;;;;7.85;1.67;;;615.00;921.60;;;;;;5095031;28;20473;-84
2021/05/22 10:52:32;;;;;;;6.53;2.28;;;615.00;998.40;;;;;;5094314;28;20072;-81
2021/05/22 10:55:05;;;;;;;2.22;1.40;;;614.90;998.40;;;;;;5112279;28;20080;-79
2021/05/22 10:57:52;;;;;;;2.25;1.20;;;614.90;947.20;;;;;;5094104;28;20034;-81
2021/05/22 11:00:22;;;;;;;5.57;1.88;;;615.20;921.60;;;;;;5094575;28;20028;-79
2021/05/22 11:03:10;;;;;;;3.78;1.58;;;640.00;844.80;;;;;;5112751;28;20031;-79
2021/05/22 11:05:41;;;;;;;5.78;1.73;;;640.40;870.40;;;;;;5112272;28;20055;-80
2021/05/22 11:08:06;;;;;;;4.93;1.98;;;640.20;844.80;;;;;;5094327;28;20030;-80
2021/05/22 11:10:36;;;;;;;3.40;1.65;;;640.10;947.20;;;;;;5112657;28;20102;-80
2021/05/22 11:13:02;;;;;;;6.90;1.80;;;640.40;870.40;;;;;;5093648;28;20024;-82
2021/05/22 11:15:52;;;;;;;3.97;1.90;;;640.60;870.40;;;;;;5094133;28;20543;-80
2021/05/22 11:18:41;;;;;;;4.45;1.60;;;640.60;972.80;;;;;;5088099;28;20056;-80
2021/05/22 11:21:19;;;;;;;5.05;2.55;;;640.30;819.20;;;;;;5061156;28;20050;-80
2021/05/22 11:23:57;;;;;;;2.22;1.50;;;640.20;819.20;;;;;;5074267;28;20029;-80
2021/05/22 11:26:52;;;;;;;8.45;2.10;;;615.30;896.00;;;;;;5074249;28;20021;-79
2021/05/22 11:29:20;;;;;;;4.60;1.50;;;615.20;921.60;;;;;;5095410;28;20024;-80
2021/05/22 11:31:45;;;;;;;6.60;2.22;;;615.10;896.00;;;;;;5077801;28;20059;-81
2021/05/22 11:34:29;;;;;;;8.38;1.92;;;615.10;972.80;;;;;;5085848;28;20055;-79
2021/05/22 11:37:10;;;;;;;8.07;1.67;;;615.10;870.40;;;;;;5097390;28;20089;-78
2021/05/22 11:39:37;;;;;;;2.72;1.55;;;615.20;870.40;;;;;;5097901;28;20030;-80
2021/05/22 11:42:30;;;;;;;2.42;1.40;;;615.20;896.00;;;;;;5098014;28;20024;-82
2021/05/22 11:44:58;;;;;;;5.00;1.70;;;640.00;819.20;;;;;;5087508;28;20142;-80
2021/05/22 11:47:35;;;;;;;3.60;1.50;;;640.40;844.80;;;;;;5115907;28;20062;-81
2021/05/22 11:50:01;;;;;;;2.58;1.48;;;640.40;870.40;;;;;;5098156;28;20023;-81
2021/05/22 11:52:34;;;;;;;9.98;1.88;;;640.40;844.80;;;;;;5096911;28;20042;-82
2021/05/22 11:55:15;;;;;;;4.82;1.70;;;640.20;844.80;;;;;;5116036;28;20038;-81
2021/05/22 11:57:41;;;;;;;1.63;1.10;;;640.50;896.00;;;;;;5097265;28;20032;-79
2021/05/22 12:00:08;;;;;;;5.13;1.42;;;640.50;844.80;;;;;;5098208;28;20070;-83
2021/05/22 12:02:41;;;;;;;6.07;1.60;;;640.50;793.60;;;;;;5097902;28;20028;-81
2021/05/22 12:05:09;;;;;;;3.88;1.75;;;640.40;870.40;;;;;;5097393;28;20028;-79
2021/05/22 12:07:55;;;;;;;3.15;1.45;;;640.50;819.20;;;;;;5097518;28;20034;-79
2021/05/22 12:10:29;;;;;;;2.17;1.23;;;640.60;844.80;;;;;;5115276;28;20027;-78
2021/05/22 12:13:02;;;;;;;4.38;1.33;;;640.70;742.40;;;;;;5114795;28;20473;-78
2021/05/22 12:15:29;;;;;;;5.03;1.48;;;640.70;793.60;;;;;;5115384;28;20092;-78